CSAV Traiguen — D5EP4 — position and weather

sailwx.info

Track history (hours):
 
Tides and Currents Weather Stations Pressure Air Temp Water Temp Dewpoint Dewpoint Depression Visibility Wind Speed Wind Dir Waves Ship Positions

CSAV Traiguen

Last reported at 2017-Nov-16 20:49 UTC. Time now 2017-Nov-21 01:06 UTC.
Position S 25°38' W 048°08'.

Length 300 m; draft 10 m.

Type: Ship. MMSI: 636016125.

Date/timePositionNaut miles runAvg speedWind from/ knotsBaromVisibWave heightAir tempDewpointWater temp
2017-Nov-16 20:49S 25°38' W 048°08'1412.2
2017-Nov-16 19:38S 25°34' W 047°53'318.6
2017-Nov-16 19:30S 25°32' W 047°51'5319.0
2017-Nov-16 16:42S 24°58' W 047°06'419.0
2017-Nov-16 16:30S 24°56' W 047°03'919.0
2017-Nov-16 16:00S 24°49' W 046°55'918.9
2017-Nov-16 15:30S 24°43' W 046°47'918.9
2017-Nov-16 15:00S 24°36' W 046°40'918.9
2017-Nov-16 14:30S 24°30' W 046°33'1019.1
2017-Nov-16 14:00S 24°21' W 046°28'918.8
2017-Nov-16 13:30S 24°12' W 046°25'917.7
2017-Nov-16 13:00S 24°04' W 046°22'5 9.7
2017-Nov-16 12:30S 23°60' W 046°19'3 5.5
2017-Nov-16 12:00S 23°57' W 046°19'3 5.4
2017-Nov-16 11:30S 23°55' W 046°21'0 0.1
2017-Nov-16 09:56S 23°55' W 046°21'0 0.0
2017-Nov-16 09:26S 23°55' W 046°21'0 0.0
2017-Nov-16 08:50S 23°55' W 046°21'0 0.0
2017-Nov-16 08:26S 23°55' W 046°21'0 0.0
2017-Nov-16 07:53S 23°55' W 046°21'0 0.0
2017-Nov-16 07:26S 23°55' W 046°21'0 0.0
2017-Nov-16 06:59S 23°55' W 046°21'0 0.0
2017-Nov-16 06:23S 23°55' W 046°21'0 0.0
2017-Nov-16 05:56S 23°55' W 046°21'0 0.0
2017-Nov-16 05:29S 23°55' W 046°21'0 0.0
2017-Nov-16 04:56S 23°55' W 046°21'0 0.0
2017-Nov-16 04:29S 23°55' W 046°21'0 0.0
2017-Nov-16 03:59S 23°55' W 046°21'0 0.0
2017-Nov-16 03:17S 23°55' W 046°21'0 0.0
2017-Nov-15 18:55S 23°55' W 046°21'2 4.2
2017-Nov-15 18:28S 23°56' W 046°19'3 6.9
2017-Nov-15 17:58S 23°59' W 046°17'3 6.9
2017-Nov-15 17:30S 24°01' W 046°20'510.7
2017-Nov-15 17:00S 24°06' W 046°22'4 8.2
2017-Nov-15 16:30S 24°10' W 046°22'0 0.4
2017-Nov-15 16:00S 24°10' W 046°22'0 0.4
2017-Nov-15 15:30S 24°10' W 046°22'0 0.5
2017-Nov-15 15:00S 24°10' W 046°22'0 0.4
2017-Nov-15 14:30S 24°10' W 046°22'0 0.3
2017-Nov-15 14:00S 24°10' W 046°22'0 0.3
2017-Nov-15 13:30S 24°10' W 046°22'0 0.5
2017-Nov-15 13:00S 24°10' W 046°21'0 0.3
2017-Nov-15 12:30S 24°10' W 046°21'0 0.2
2017-Nov-15 12:00S 24°10' W 046°21'1 1.9
2017-Nov-15 11:30S 24°10' W 046°20'3 6.6
2017-Nov-15 11:00S 24°11' W 046°17'510.4
2017-Nov-15 10:30S 24°11' W 046°11'713.2
2017-Nov-15 10:00S 24°13' W 046°04'713.3
2017-Nov-15 09:28S 24°15' W 045°56'  
Track history (hours):
 
Tides and Currents Weather Stations Pressure Air Temp Water Temp Dewpoint Dewpoint Depression Visibility Wind Speed Wind Dir Waves Ship Positions

CSAV Traiguen

Last reported at 2017-Nov-16 20:49 UTC. Time now 2017-Nov-21 01:06 UTC.
Position S 25°38' W 048°08'.

Length 300 m; draft 10 m.

Type: Ship. MMSI: 636016125.

Date/timePositionNaut miles runAvg speedWind from/ knotsBaromVisibWave heightAir tempDewpointWater temp
2017-Nov-16 20:49S 25°38' W 048°08'1412.2
2017-Nov-16 19:38S 25°34' W 047°53'318.6
2017-Nov-16 19:30S 25°32' W 047°51'5319.0
2017-Nov-16 16:42S 24°58' W 047°06'419.0
2017-Nov-16 16:30S 24°56' W 047°03'919.0
2017-Nov-16 16:00S 24°49' W 046°55'918.9
2017-Nov-16 15:30S 24°43' W 046°47'918.9
2017-Nov-16 15:00S 24°36' W 046°40'918.9
2017-Nov-16 14:30S 24°30' W 046°33'1019.1
2017-Nov-16 14:00S 24°21' W 046°28'918.8
2017-Nov-16 13:30S 24°12' W 046°25'917.7
2017-Nov-16 13:00S 24°04' W 046°22'5 9.7
2017-Nov-16 12:30S 23°60' W 046°19'3 5.5
2017-Nov-16 12:00S 23°57' W 046°19'3 5.4
2017-Nov-16 11:30S 23°55' W 046°21'0 0.1
2017-Nov-16 09:56S 23°55' W 046°21'0 0.0
2017-Nov-16 09:26S 23°55' W 046°21'0 0.0
2017-Nov-16 08:50S 23°55' W 046°21'0 0.0
2017-Nov-16 08:26S 23°55' W 046°21'0 0.0
2017-Nov-16 07:53S 23°55' W 046°21'0 0.0
2017-Nov-16 07:26S 23°55' W 046°21'0 0.0
2017-Nov-16 06:59S 23°55' W 046°21'0 0.0
2017-Nov-16 06:23S 23°55' W 046°21'0 0.0
2017-Nov-16 05:56S 23°55' W 046°21'0 0.0
2017-Nov-16 05:29S 23°55' W 046°21'0 0.0
2017-Nov-16 04:56S 23°55' W 046°21'0 0.0
2017-Nov-16 04:29S 23°55' W 046°21'0 0.0
2017-Nov-16 03:59S 23°55' W 046°21'0 0.0
2017-Nov-16 03:17S 23°55' W 046°21'0 0.0
2017-Nov-15 18:55S 23°55' W 046°21'2 4.2
2017-Nov-15 18:28S 23°56' W 046°19'3 6.9
2017-Nov-15 17:58S 23°59' W 046°17'3 6.9
2017-Nov-15 17:30S 24°01' W 046°20'510.7
2017-Nov-15 17:00S 24°06' W 046°22'4 8.2
2017-Nov-15 16:30S 24°10' W 046°22'0 0.4
2017-Nov-15 16:00S 24°10' W 046°22'0 0.4
2017-Nov-15 15:30S 24°10' W 046°22'0 0.5
2017-Nov-15 15:00S 24°10' W 046°22'0 0.4
2017-Nov-15 14:30S 24°10' W 046°22'0 0.3
2017-Nov-15 14:00S 24°10' W 046°22'0 0.3
2017-Nov-15 13:30S 24°10' W 046°22'0 0.5
2017-Nov-15 13:00S 24°10' W 046°21'0 0.3
2017-Nov-15 12:30S 24°10' W 046°21'0 0.2
2017-Nov-15 12:00S 24°10' W 046°21'1 1.9
2017-Nov-15 11:30S 24°10' W 046°20'3 6.6
2017-Nov-15 11:00S 24°11' W 046°17'510.4
2017-Nov-15 10:30S 24°11' W 046°11'713.2
2017-Nov-15 10:00S 24°13' W 046°04'713.3
2017-Nov-15 09:28S 24°15' W 045°56'  

Dump ship's entire track history